Time;durP1;ratioP1;P1;durP2;ratioP2;P2;SDS_P1;SDS_P2;PMS_P1;PMS_P2;Temp;Humidity;BMP_temperature;BMP_pressure;BME280_temperature;BME280_humidity;BME280_pressure;Samples;Min_cycle;Max_cycle;Signal;HPM_P1;HPM_P2
2024/02/28 00:02:04;;;;;;;22.92;7.47;;;1.30;100.00;;;;;;5015471;28;20487;-72
2024/02/28 00:04:30;;;;;;;18.45;7.03;;;1.30;100.00;;;;;;4982731;28;20105;-72
2024/02/28 00:06:58;;;;;;;23.05;7.40;;;1.30;100.00;;;;;;5007652;28;20075;-72
2024/02/28 00:09:24;;;;;;;22.35;7.68;;;1.30;100.00;;;;;;4986976;28;20078;-71
2024/02/28 00:11:51;;;;;;;26.58;7.90;;;1.20;100.00;;;;;;4990578;28;20066;-72
2024/02/28 00:14:18;;;;;;;22.42;7.22;;;1.20;100.00;;;;;;4991593;28;20074;-71
2024/02/28 00:16:46;;;;;;;22.77;7.65;;;1.20;100.00;;;;;;5009570;28;20050;-72
2024/02/28 00:19:13;;;;;;;21.40;7.70;;;1.20;100.00;;;;;;4997683;28;20048;-72
2024/02/28 00:21:40;;;;;;;22.20;8.55;;;1.20;100.00;;;;;;5009611;28;20071;-72
2024/02/28 00:24:08;;;;;;;23.55;8.60;;;1.20;100.00;;;;;;5028619;28;20048;-72
2024/02/28 00:26:36;;;;;;;21.67;9.27;;;1.20;100.00;;;;;;4992854;28;20090;-72
2024/02/28 00:29:03;;;;;;;26.38;9.07;;;1.30;100.00;;;;;;5016545;28;20508;-72
2024/02/28 00:31:30;;;;;;;30.48;8.77;;;1.30;100.00;;;;;;4989508;28;20716;-72
2024/02/28 00:33:56;;;;;;;25.35;9.38;;;1.30;100.00;;;;;;5031454;28;20058;-72
2024/02/28 00:36:23;;;;;;;25.48;10.10;;;1.30;100.00;;;;;;5004190;28;20053;-72
2024/02/28 00:38:50;;;;;;;24.38;8.77;;;1.30;100.00;;;;;;4992410;28;20392;-72
2024/02/28 00:41:17;;;;;;;21.90;7.63;;;1.30;100.00;;;;;;4989316;28;20674;-72
2024/02/28 00:43:44;;;;;;;22.42;8.40;;;1.30;100.00;;;;;;5001013;28;20164;-72
2024/02/28 00:46:12;;;;;;;20.40;7.78;;;1.20;100.00;;;;;;5003924;28;20116;-72
2024/02/28 00:48:39;;;;;;;27.15;8.65;;;1.20;100.00;;;;;;4987878;28;20073;-72
2024/02/28 00:51:08;;;;;;;27.92;9.63;;;1.10;100.00;;;;;;4995680;28;20050;-72
2024/02/28 00:53:35;;;;;;;25.92;8.93;;;1.10;100.00;;;;;;5000144;28;20053;-72
2024/02/28 00:56:03;;;;;;;24.63;8.52;;;1.20;100.00;;;;;;4991296;28;20051;-72
2024/02/28 00:58:30;;;;;;;23.77;8.85;;;1.20;100.00;;;;;;5008633;28;20081;-71
2024/02/28 01:00:57;;;;;;;32.67;9.73;;;1.20;100.00;;;;;;4989643;28;20162;-72
2024/02/28 01:03:24;;;;;;;23.98;8.50;;;1.10;100.00;;;;;;5017585;28;20598;-72
2024/02/28 01:05:52;;;;;;;26.48;9.20;;;1.20;100.00;;;;;;4991603;28;20496;-71
2024/02/28 01:08:18;;;;;;;25.70;9.07;;;1.20;100.00;;;;;;4995892;28;20046;-72
2024/02/28 01:10:46;;;;;;;24.30;9.38;;;1.20;100.00;;;;;;5004255;28;20050;-72
2024/02/28 01:13:13;;;;;;;31.30;9.20;;;1.20;100.00;;;;;;4996035;28;20046;-71
2024/02/28 01:15:43;;;;;;;33.65;9.52;;;1.20;100.00;;;;;;4989927;28;20059;-72
2024/02/28 01:18:10;;;;;;;32.45;10.05;;;1.20;100.00;;;;;;4985941;28;20052;-72
2024/02/28 01:20:38;;;;;;;28.70;8.70;;;1.30;100.00;;;;;;4994150;28;20047;-71
2024/02/28 01:23:05;;;;;;;25.33;9.38;;;1.20;100.00;;;;;;5007609;28;20136;-71
2024/02/28 01:25:32;;;;;;;22.98;9.13;;;1.10;100.00;;;;;;4988122;28;20061;-71
2024/02/28 01:27:58;;;;;;;32.13;8.93;;;1.10;100.00;;;;;;4983906;28;20066;-71
2024/02/28 01:30:26;;;;;;;24.73;8.35;;;1.10;100.00;;;;;;4985588;28;20046;-72
2024/02/28 01:32:53;;;;;;;26.27;9.02;;;1.10;100.00;;;;;;4990496;28;20444;-72
2024/02/28 01:35:20;;;;;;;25.00;7.38;;;1.10;100.00;;;;;;5014858;28;20045;-72
2024/02/28 01:37:47;;;;;;;23.33;8.35;;;1.00;100.00;;;;;;5036284;28;20046;-72
2024/02/28 01:40:14;;;;;;;23.70;9.07;;;1.00;100.00;;;;;;4986900;28;20055;-72
2024/02/28 01:42:40;;;;;;;23.55;8.25;;;0.90;100.00;;;;;;5005952;28;20740;-72
2024/02/28 01:45:12;;;;;;;27.30;8.55;;;0.90;100.00;;;;;;5004516;28;20070;-72
2024/02/28 01:50:51;;;;;;;25.17;8.77;;;1.00;100.00;;;;;;5042031;28;20126;-72
2024/02/28 01:53:18;;;;;;;22.55;7.75;;;1.00;100.00;;;;;;5061464;28;20123;-72
2024/02/28 01:55:47;;;;;;;25.05;8.75;;;1.00;100.00;;;;;;5046557;28;20051;-72
2024/02/28 01:58:14;;;;;;;28.48;8.75;;;1.00;100.00;;;;;;5061117;28;20158;-72
2024/02/28 02:00:42;;;;;;;22.23;7.53;;;1.00;100.00;;;;;;5048264;28;20114;-71
2024/02/28 02:03:09;;;;;;;30.17;10.05;;;1.00;100.00;;;;;;5057294;28;20424;-71
2024/02/28 02:05:35;;;;;;;24.27;8.48;;;1.00;100.00;;;;;;5055442;28;20793;-71
2024/02/28 02:08:03;;;;;;;25.58;8.38;;;1.00;100.00;;;;;;5061626;28;20053;-71
2024/02/28 02:10:30;;;;;;;30.15;8.57;;;1.00;100.00;;;;;;5045976;28;20049;-72
2024/02/28 02:13:05;;;;;;;30.10;9.07;;;1.00;100.00;;;;;;5045970;28;20049;-71
2024/02/28 02:15:32;;;;;;;27.00;7.93;;;1.00;100.00;;;;;;5061159;28;20571;-71
2024/02/28 02:17:59;;;;;;;27.42;8.43;;;1.00;100.00;;;;;;5044965;28;20045;-71
2024/02/28 02:20:29;;;;;;;24.67;8.30;;;1.00;100.00;;;;;;5045940;28;20059;-71
2024/02/28 02:22:57;;;;;;;25.67;8.20;;;1.00;100.00;;;;;;5045698;28;20052;-71
2024/02/28 02:25:23;;;;;;;22.75;7.72;;;1.00;100.00;;;;;;5043978;28;20044;-71
2024/02/28 02:27:50;;;;;;;28.15;8.50;;;1.10;100.00;;;;;;5064011;28;20110;-71
2024/02/28 02:30:17;;;;;;;24.75;8.85;;;1.00;100.00;;;;;;5045147;28;20154;-71
2024/02/28 02:32:44;;;;;;;26.20;8.30;;;1.00;100.00;;;;;;5060536;28;20406;-71
2024/02/28 02:35:11;;;;;;;27.48;7.93;;;1.00;100.00;;;;;;5045888;28;20497;-71
2024/02/28 02:37:37;;;;;;;27.88;8.43;;;1.00;100.00;;;;;;5045198;28;20072;-71
2024/02/28 02:40:05;;;;;;;25.75;8.20;;;1.00;100.00;;;;;;5061430;28;20122;-71
2024/02/28 02:42:32;;;;;;;25.63;7.50;;;1.00;100.00;;;;;;5045379;28;20106;-71
2024/02/28 02:44:59;;;;;;;25.70;8.38;;;1.00;100.00;;;;;;5043665;28;20063;-71
2024/02/28 02:47:25;;;;;;;23.33;7.82;;;0.90;100.00;;;;;;5045515;28;20053;-71
2024/02/28 02:49:52;;;;;;;26.48;8.55;;;1.00;100.00;;;;;;5071680;28;20055;-71
2024/02/28 02:52:19;;;;;;;26.75;9.23;;;1.00;100.00;;;;;;5080385;28;20780;-71
2024/02/28 02:54:46;;;;;;;21.90;8.23;;;0.90;100.00;;;;;;5065215;28;20106;-71
2024/02/28 03:00:28;;;;;;;19.23;7.13;;;1.00;100.00;;;;;;5126547;23;20064;-78
2024/02/28 03:02:56;;;;;;;24.92;9.88;;;1.00;100.00;;;;;;5051668;28;20045;-78
2024/02/28 03:05:23;;;;;;;23.25;8.88;;;1.00;100.00;;;;;;5056467;28;20137;-78
2024/02/28 03:07:49;;;;;;;29.90;8.90;;;1.00;100.00;;;;;;5058747;28;20795;-78
2024/02/28 03:10:16;;;;;;;24.23;8.02;;;1.00;100.00;;;;;;5055578;28;20048;-78
2024/02/28 03:12:43;;;;;;;26.50;9.25;;;1.00;100.00;;;;;;5060063;28;20052;-78
2024/02/28 03:15:10;;;;;;;27.80;8.85;;;0.90;100.00;;;;;;5059052;28;20639;-78
2024/02/28 03:17:37;;;;;;;27.02;8.63;;;0.90;100.00;;;;;;5056664;28;20115;-78
2024/02/28 03:20:04;;;;;;;26.45;8.00;;;0.80;100.00;;;;;;5057692;28;20056;-78
2024/02/28 03:22:31;;;;;;;23.05;7.40;;;0.80;100.00;;;;;;5063540;28;20080;-79
2024/02/28 03:24:57;;;;;;;27.08;7.75;;;0.80;100.00;;;;;;5050369;28;20597;-78
2024/02/28 03:27:24;;;;;;;31.60;8.07;;;0.70;100.00;;;;;;5062654;28;20497;-78
2024/02/28 03:29:51;;;;;;;33.85;8.30;;;0.70;100.00;;;;;;5054364;28;20133;-79
2024/02/28 03:32:18;;;;;;;28.13;7.35;;;0.70;100.00;;;;;;5051626;28;20103;-79
2024/02/28 03:34:45;;;;;;;29.77;8.75;;;0.70;100.00;;;;;;5064254;28;20089;-78
2024/02/28 03:37:11;;;;;;;27.80;7.57;;;0.60;100.00;;;;;;5056940;28;20540;-79
2024/02/28 03:39:38;;;;;;;22.85;7.45;;;0.60;100.00;;;;;;5052718;28;20052;-78
2024/02/28 03:42:05;;;;;;;23.83;7.72;;;0.60;100.00;;;;;;5059378;28;20484;-77
2024/02/28 03:44:32;;;;;;;20.27;6.75;;;0.70;100.00;;;;;;5058450;28;20044;-78
2024/02/28 03:46:59;;;;;;;26.10;7.63;;;0.70;100.00;;;;;;5059408;28;20052;-78
2024/02/28 03:49:26;;;;;;;30.92;8.65;;;0.70;100.00;;;;;;5062013;28;20080;-78
2024/02/28 03:51:52;;;;;;;27.23;7.88;;;0.70;100.00;;;;;;5061952;28;20052;-77
2024/02/28 03:54:19;;;;;;;23.45;7.78;;;0.70;100.00;;;;;;5050433;28;20064;-78
2024/02/28 03:56:46;;;;;;;28.25;8.57;;;0.70;100.00;;;;;;5050687;28;20049;-77
2024/02/28 03:59:13;;;;;;;28.13;8.23;;;0.70;100.00;;;;;;5055426;28;20075;-77
2024/02/28 04:01:40;;;;;;;26.75;7.55;;;0.60;100.00;;;;;;5058200;28;20113;-77
2024/02/28 04:04:07;;;;;;;25.80;7.43;;;0.60;100.00;;;;;;5054809;28;20139;-77
2024/02/28 04:06:34;;;;;;;33.80;7.28;;;0.50;100.00;;;;;;5052579;28;20053;-77
2024/02/28 04:09:02;;;;;;;30.15;7.88;;;0.60;100.00;;;;;;5056804;28;20044;-77
2024/02/28 04:11:29;;;;;;;26.60;6.97;;;0.60;100.00;;;;;;5053463;28;20040;-77
2024/02/28 04:13:56;;;;;;;21.05;6.50;;;0.60;100.00;;;;;;5047906;28;20045;-77
2024/02/28 04:16:23;;;;;;;23.33;7.75;;;0.60;100.00;;;;;;5062767;28;20052;-77
2024/02/28 04:18:50;;;;;;;20.63;7.00;;;0.50;100.00;;;;;;5055317;28;20053;-77
2024/02/28 04:21:17;;;;;;;28.83;7.22;;;0.50;100.00;;;;;;5060889;28;20049;-78
2024/02/28 04:23:44;;;;;;;19.30;6.05;;;0.50;100.00;;;;;;5062022;28;20061;-78
2024/02/28 04:26:10;;;;;;;17.48;6.03;;;0.50;100.00;;;;;;5059428;28;20149;-77
2024/02/28 04:28:37;;;;;;;19.30;6.00;;;0.50;100.00;;;;;;5052925;28;20512;-78
2024/02/28 04:31:04;;;;;;;26.23;7.93;;;0.40;100.00;;;;;;5056731;28;20049;-77
2024/02/28 04:33:31;;;;;;;22.13;7.07;;;0.40;100.00;;;;;;5055461;28;20062;-77
2024/02/28 04:35:58;;;;;;;25.58;7.93;;;0.40;100.00;;;;;;5063433;28;20102;-77
2024/02/28 04:38:24;;;;;;;25.17;7.10;;;0.40;100.00;;;;;;5045680;28;20076;-77
2024/02/28 04:40:52;;;;;;;20.50;7.47;;;0.40;100.00;;;;;;5054178;28;20084;-78
2024/02/28 04:43:18;;;;;;;21.83;7.07;;;0.40;100.00;;;;;;5053095;28;20049;-77
2024/02/28 04:45:45;;;;;;;23.10;7.40;;;0.40;100.00;;;;;;5056813;28;20080;-77
2024/02/28 04:48:12;;;;;;;21.25;6.85;;;0.40;100.00;;;;;;5055433;28;20048;-77
2024/02/28 04:50:39;;;;;;;23.05;6.93;;;0.40;100.00;;;;;;5058633;28;20044;-77
2024/02/28 04:53:06;;;;;;;23.17;7.22;;;0.40;100.00;;;;;;5057104;28;20098;-77
2024/02/28 04:55:32;;;;;;;30.67;7.68;;;0.40;100.00;;;;;;5056434;28;20123;-77
2024/02/28 04:58:00;;;;;;;28.05;8.10;;;0.40;100.00;;;;;;5057799;28;20153;-78
2024/02/28 05:00:27;;;;;;;26.85;8.18;;;0.40;100.00;;;;;;5060037;28;20076;-77
2024/02/28 05:02:54;;;;;;;23.23;6.65;;;0.50;100.00;;;;;;5062104;28;20053;-76
2024/02/28 05:05:21;;;;;;;27.70;7.15;;;0.50;100.00;;;;;;5052294;28;20075;-77
2024/02/28 05:07:47;;;;;;;25.73;8.02;;;0.40;100.00;;;;;;5060155;28;20080;-76
2024/02/28 05:10:14;;;;;;;24.35;7.50;;;0.40;100.00;;;;;;5055239;28;20824;-77
2024/02/28 05:12:42;;;;;;;28.25;8.05;;;0.40;100.00;;;;;;5055327;28;20057;-76
2024/02/28 05:15:09;;;;;;;25.15;7.40;;;0.40;100.00;;;;;;5059966;28;20091;-76
2024/02/28 05:17:36;;;;;;;23.90;6.90;;;0.50;100.00;;;;;;5062518;28;20113;-77
2024/02/28 05:20:03;;;;;;;22.77;7.38;;;0.50;100.00;;;;;;5052483;28;20045;-77
2024/02/28 05:22:30;;;;;;;28.48;8.65;;;0.50;100.00;;;;;;5058547;28;20130;-77
2024/02/28 05:24:57;;;;;;;26.17;6.97;;;0.50;100.00;;;;;;5055960;28;20048;-77
2024/02/28 05:30:11;;;;;;;27.25;8.25;;;0.50;100.00;;;;;;5000288;28;20062;-77
2024/02/28 05:32:37;;;;;;;31.80;9.55;;;0.50;100.00;;;;;;5005207;28;20038;-77
2024/02/28 05:35:05;;;;;;;34.45;9.18;;;0.50;100.00;;;;;;5007430;28;20042;-77
2024/02/28 05:37:31;;;;;;;23.50;7.90;;;0.50;100.00;;;;;;5016081;28;20069;-77
2024/02/28 05:39:58;;;;;;;30.35;8.88;;;0.50;100.00;;;;;;5010290;28;20096;-77
2024/02/28 05:42:25;;;;;;;29.35;8.10;;;0.60;100.00;;;;;;5008762;28;20092;-77
2024/02/28 05:44:52;;;;;;;34.25;8.82;;;0.50;100.00;;;;;;5007990;28;20081;-77
2024/02/28 05:47:20;;;;;;;27.02;8.30;;;0.60;100.00;;;;;;5003828;28;20104;-76
2024/02/28 05:49:51;;;;;;;30.67;8.50;;;0.50;100.00;;;;;;5012201;28;20049;-77
2024/02/28 05:52:18;;;;;;;28.05;9.02;;;0.60;100.00;;;;;;5009761;28;20046;-77
2024/02/28 05:54:44;;;;;;;34.63;9.88;;;0.60;100.00;;;;;;5024244;28;20623;-77
2024/02/28 05:57:11;;;;;;;36.53;9.25;;;0.60;100.00;;;;;;5009949;28;20046;-73
2024/02/28 05:59:38;;;;;;;30.13;8.43;;;0.60;100.00;;;;;;5006852;28;20078;-75
2024/02/28 06:02:05;;;;;;;23.70;8.10;;;0.60;100.00;;;;;;5007874;28;20058;-73
2024/02/28 06:04:31;;;;;;;33.60;8.93;;;0.60;100.00;;;;;;5022433;28;20143;-75
2024/02/28 06:06:59;;;;;;;24.83;8.73;;;0.60;100.00;;;;;;5005347;28;20054;-77
2024/02/28 06:09:29;;;;;;;29.35;8.50;;;0.70;100.00;;;;;;5013786;28;20495;-72
2024/02/28 06:11:56;;;;;;;35.15;8.63;;;0.70;100.00;;;;;;5005447;28;20514;-74
2024/02/28 06:14:26;;;;;;;33.97;9.60;;;0.70;100.00;;;;;;5005070;28;20037;-80
2024/02/28 06:16:53;;;;;;;27.92;8.82;;;0.80;100.00;;;;;;5008907;28;20466;-74
2024/02/28 06:19:19;;;;;;;31.10;8.35;;;0.80;100.00;;;;;;5010995;28;20119;-75
2024/02/28 06:21:46;;;;;;;30.63;8.48;;;0.80;100.00;;;;;;5008760;28;20081;-76
2024/02/28 06:24:13;;;;;;;28.80;8.63;;;0.80;100.00;;;;;;5004353;28;20053;-79
2024/02/28 06:26:41;;;;;;;25.77;8.30;;;0.80;100.00;;;;;;5011138;28;20062;-72
2024/02/28 06:29:08;;;;;;;28.95;8.73;;;0.90;100.00;;;;;;5019499;28;20492;-75
2024/02/28 06:31:35;;;;;;;31.15;7.60;;;0.90;100.00;;;;;;5006722;28;20054;-76
2024/02/28 06:34:03;;;;;;;20.90;7.07;;;0.90;100.00;;;;;;5007264;28;20053;-74
2024/02/28 06:36:30;;;;;;;23.77;7.80;;;0.90;100.00;;;;;;5006272;28;20372;-77
2024/02/28 06:38:58;;;;;;;28.48;8.32;;;1.00;100.00;;;;;;5025309;28;20147;-76
2024/02/28 06:41:24;;;;;;;25.25;7.47;;;1.00;100.00;;;;;;5009814;28;20132;-78
2024/02/28 06:43:51;;;;;;;28.40;9.40;;;1.00;100.00;;;;;;5022391;28;20104;-77
2024/02/28 06:46:18;;;;;;;28.30;8.45;;;1.10;100.00;;;;;;5009923;28;20104;-77
2024/02/28 06:48:45;;;;;;;27.60;7.78;;;1.10;100.00;;;;;;5011659;28;20053;-77
2024/02/28 06:51:11;;;;;;;26.85;7.80;;;1.10;100.00;;;;;;5018067;28;20128;-77
2024/02/28 06:53:42;;;;;;;29.23;8.95;;;1.10;100.00;;;;;;5009757;28;20050;-77
2024/02/28 06:56:09;;;;;;;25.63;8.95;;;1.10;100.00;;;;;;5008506;28;20053;-77
2024/02/28 06:58:36;;;;;;;25.17;8.07;;;1.20;100.00;;;;;;5010138;28;20054;-77
2024/02/28 07:01:03;;;;;;;26.83;8.82;;;1.20;100.00;;;;;;5010948;28;20391;-77
2024/02/28 07:03:30;;;;;;;29.27;7.82;;;1.20;100.00;;;;;;5010656;28;20046;-77
2024/02/28 07:05:58;;;;;;;33.92;8.25;;;1.20;100.00;;;;;;5010840;28;20061;-78
2024/02/28 07:08:24;;;;;;;33.75;8.98;;;1.20;100.00;;;;;;5011211;28;20049;-77
2024/02/28 07:10:53;;;;;;;26.40;8.57;;;1.20;100.00;;;;;;5009685;28;20081;-78
2024/02/28 07:13:21;;;;;;;25.00;8.60;;;1.20;100.00;;;;;;5009381;28;20041;-78
2024/02/28 07:15:48;;;;;;;23.98;7.47;;;1.30;100.00;;;;;;5024854;28;20046;-78
2024/02/28 07:18:16;;;;;;;37.20;9.43;;;1.30;100.00;;;;;;5012330;28;20136;-78
2024/02/28 07:20:43;;;;;;;29.85;9.10;;;1.30;100.00;;;;;;5010529;28;20045;-77
2024/02/28 07:23:09;;;;;;;29.38;8.93;;;1.30;100.00;;;;;;5009566;28;20057;-78
2024/02/28 07:25:36;;;;;;;37.55;9.88;;;1.30;100.00;;;;;;5021955;28;20107;-77
2024/02/28 07:28:03;;;;;;;30.13;10.90;;;1.30;100.00;;;;;;5014718;28;20111;-77
2024/02/28 07:30:31;;;;;;;28.10;9.00;;;1.30;100.00;;;;;;5022891;28;20499;-77
2024/02/28 07:32:58;;;;;;;26.08;8.40;;;1.30;100.00;;;;;;5012215;28;20046;-77
2024/02/28 07:35:25;;;;;;;24.70;7.60;;;1.30;100.00;;;;;;5009592;28;20071;-78
2024/02/28 07:37:51;;;;;;;21.70;7.88;;;1.30;100.00;;;;;;5009854;28;20088;-77
2024/02/28 07:40:18;;;;;;;24.88;7.95;;;1.30;100.00;;;;;;5030142;28;20378;-77
2024/02/28 07:42:45;;;;;;;19.38;7.40;;;1.30;100.00;;;;;;5008327;28;20050;-69
2024/02/28 07:45:13;;;;;;;31.95;9.27;;;1.30;100.00;;;;;;5004738;28;20060;-69
2024/02/28 07:47:40;;;;;;;24.30;7.43;;;1.30;100.00;;;;;;5003958;28;20065;-69
2024/02/28 07:50:07;;;;;;;25.55;7.80;;;1.30;100.00;;;;;;5003175;28;20053;-69
2024/02/28 07:52:35;;;;;;;23.75;8.65;;;1.40;100.00;;;;;;5004104;28;20049;-69
2024/02/28 07:55:02;;;;;;;24.67;6.47;;;1.40;100.00;;;;;;5004689;28;20073;-69
2024/02/28 07:57:29;;;;;;;21.80;7.78;;;1.40;100.00;;;;;;5004749;28;20080;-69
2024/02/28 07:59:55;;;;;;;24.60;8.10;;;1.50;100.00;;;;;;5005064;28;20058;-69
2024/02/28 08:02:22;;;;;;;23.42;7.68;;;1.60;100.00;;;;;;5004820;28;20057;-69
2024/02/28 08:04:50;;;;;;;16.60;6.10;;;1.60;100.00;;;;;;5004263;28;20050;-69
2024/02/28 08:07:17;;;;;;;24.83;7.78;;;1.60;100.00;;;;;;5006481;28;20041;-69
2024/02/28 08:09:44;;;;;;;25.17;8.27;;;1.70;100.00;;;;;;5016360;28;20164;-69
2024/02/28 08:12:11;;;;;;;18.95;7.05;;;1.80;100.00;;;;;;5002152;28;20057;-69
2024/02/28 08:14:38;;;;;;;22.50;6.90;;;1.80;100.00;;;;;;5018782;28;20050;-69
2024/02/28 08:17:05;;;;;;;22.77;6.57;;;1.90;100.00;;;;;;5004245;28;20561;-69
2024/02/28 08:19:32;;;;;;;24.10;8.23;;;1.90;100.00;;;;;;5003423;28;20548;-69
2024/02/28 08:21:59;;;;;;;19.60;7.05;;;2.00;100.00;;;;;;5009722;28;20065;-69
2024/02/28 08:24:25;;;;;;;23.35;8.52;;;2.00;100.00;;;;;;5005115;28;20542;-70
2024/02/28 08:26:53;;;;;;;23.60;7.55;;;2.10;100.00;;;;;;5004663;28;20050;-69
2024/02/28 08:29:19;;;;;;;25.23;8.25;;;2.10;100.00;;;;;;5002761;28;20073;-70
2024/02/28 08:31:46;;;;;;;24.40;8.63;;;2.10;100.00;;;;;;5002902;28;20124;-69
2024/02/28 08:34:13;;;;;;;23.48;7.68;;;2.20;100.00;;;;;;5003929;28;20049;-70
2024/02/28 08:36:40;;;;;;;22.73;8.57;;;2.20;100.00;;;;;;5004119;28;20474;-70
2024/02/28 08:39:09;;;;;;;22.40;7.95;;;2.20;100.00;;;;;;5003212;28;20073;-70
2024/02/28 08:41:36;;;;;;;25.92;8.50;;;2.30;100.00;;;;;;5016654;28;20061;-69
2024/02/28 08:44:03;;;;;;;26.08;9.05;;;2.40;100.00;;;;;;5009518;28;20057;-70
2024/02/28 08:46:30;;;;;;;23.23;8.15;;;2.40;100.00;;;;;;5006266;28;20073;-70
2024/02/28 08:48:56;;;;;;;24.27;8.57;;;2.40;100.00;;;;;;5008139;28;20145;-69
2024/02/28 08:51:23;;;;;;;23.40;9.10;;;2.40;100.00;;;;;;5014887;28;20054;-70
2024/02/28 08:53:52;;;;;;;26.70;9.35;;;2.50;100.00;;;;;;5007045;28;20467;-70
2024/02/28 08:56:19;;;;;;;24.52;8.70;;;2.50;100.00;;;;;;5007855;28;20049;-70
2024/02/28 08:58:46;;;;;;;32.00;10.30;;;2.60;100.00;;;;;;5008174;28;20049;-70
2024/02/28 09:01:16;;;;;;;31.95;9.35;;;2.60;100.00;;;;;;5007925;28;20053;-70
2024/02/28 09:03:43;;;;;;;30.50;10.32;;;2.60;100.00;;;;;;5010879;28;20058;-78
2024/02/28 09:06:10;;;;;;;28.27;10.73;;;2.80;100.00;;;;;;5026875;28;20076;-78
2024/02/28 09:08:37;;;;;;;35.03;11.93;;;2.80;100.00;;;;;;5011649;28;20049;-78
2024/02/28 09:11:05;;;;;;;39.78;12.48;;;2.90;100.00;;;;;;5017042;28;20132;-78
2024/02/28 09:13:32;;;;;;;32.70;12.23;;;3.00;100.00;;;;;;5011284;28;20062;-78
2024/02/28 09:15:58;;;;;;;33.72;12.32;;;3.10;100.00;;;;;;5025461;28;20865;-78
2024/02/28 09:18:25;;;;;;;30.10;10.85;;;3.00;100.00;;;;;;5025829;28;20056;-78
2024/02/28 09:20:53;;;;;;;33.35;12.38;;;3.10;100.00;;;;;;5017442;28;20053;-78
2024/02/28 09:23:19;;;;;;;29.13;9.77;;;3.20;100.00;;;;;;5010883;28;20124;-78
2024/02/28 09:25:46;;;;;;;32.28;11.38;;;3.20;100.00;;;;;;5010556;28;20045;-78
2024/02/28 09:28:15;;;;;;;28.98;11.02;;;3.30;100.00;;;;;;5016480;28;20042;-78
2024/02/28 09:30:43;;;;;;;30.10;11.07;;;3.30;100.00;;;;;;5006082;28;20049;-78
2024/02/28 09:33:19;;;;;;;35.80;11.95;;;3.30;100.00;;;;;;5011856;28;20061;-78
2024/02/28 09:35:46;;;;;;;36.83;12.40;;;3.50;100.00;;;;;;5010932;28;20133;-78
2024/02/28 09:38:13;;;;;;;38.22;12.80;;;3.60;100.00;;;;;;5031168;28;20841;-78
2024/02/28 09:40:41;;;;;;;38.25;12.65;;;3.70;100.00;;;;;;5011573;28;20108;-78
2024/02/28 09:43:44;;;;;;;38.05;13.10;;;3.80;100.00;;;;;;5009729;28;20057;-78
2024/02/28 09:46:12;;;;;;;45.25;14.23;;;3.90;100.00;;;;;;5002344;28;20462;-79
2024/02/28 09:48:42;;;;;;;33.15;12.45;;;4.00;100.00;;;;;;5011788;28;20057;-78
2024/02/28 09:51:13;;;;;;;42.72;14.20;;;4.20;100.00;;;;;;5011593;28;20045;-79
2024/02/28 09:53:40;;;;;;;39.22;13.77;;;4.40;100.00;;;;;;5025583;28;20455;-78
2024/02/28 09:56:07;;;;;;;45.30;13.93;;;4.50;100.00;;;;;;5011262;28;20049;-79
2024/02/28 09:58:35;;;;;;;39.13;14.48;;;4.80;100.00;;;;;;5010312;28;20046;-79
2024/02/28 10:01:04;;;;;;;42.55;16.08;;;4.90;100.00;;;;;;5026296;28;20060;-78
2024/02/28 10:03:32;;;;;;;40.75;16.15;;;4.90;100.00;;;;;;5010275;28;20046;-78
2024/02/28 10:05:59;;;;;;;43.75;15.40;;;5.10;100.00;;;;;;5009074;28;20542;-79
2024/02/28 10:08:31;;;;;;;39.55;14.45;;;5.10;100.00;;;;;;5025287;28;20129;-79
2024/02/28 10:10:58;;;;;;;45.65;15.15;;;5.00;100.00;;;;;;5012513;28;20052;-79
2024/02/28 10:13:25;;;;;;;37.80;14.57;;;5.10;100.00;;;;;;5006415;28;20732;-80
2024/02/28 10:15:54;;;;;;;39.33;13.27;;;5.10;100.00;;;;;;5011041;28;20839;-79
2024/02/28 10:18:21;;;;;;;37.47;14.82;;;5.20;100.00;;;;;;5010025;28;20096;-79
2024/02/28 10:20:48;;;;;;;45.45;15.77;;;5.20;100.00;;;;;;5019584;28;20111;-78
2024/02/28 10:23:16;;;;;;;41.65;16.48;;;5.30;100.00;;;;;;5011960;28;20778;-79
2024/02/28 10:25:44;;;;;;;41.47;15.38;;;5.50;100.00;;;;;;5011650;28;20061;-79
2024/02/28 10:28:22;;;;;;;36.38;13.40;;;5.50;100.00;;;;;;5011613;28;20050;-78
2024/02/28 10:30:49;;;;;;;45.70;14.65;;;5.50;100.00;;;;;;5011219;28;20058;-79
2024/02/28 10:33:16;;;;;;;42.28;13.43;;;5.30;100.00;;;;;;5025839;28;20061;-79
2024/02/28 10:35:44;;;;;;;34.63;12.85;;;5.30;100.00;;;;;;5013811;28;20774;-79
2024/02/28 10:38:12;;;;;;;39.90;14.82;;;5.40;100.00;;;;;;5012046;28;20053;-79
2024/02/28 10:40:43;;;;;;;38.53;14.05;;;5.40;100.00;;;;;;5026131;28;20739;-79
2024/02/28 10:43:10;;;;;;;35.10;13.75;;;5.40;100.00;;;;;;5009290;28;20593;-79
2024/02/28 10:45:40;;;;;;;38.22;13.15;;;5.40;100.00;;;;;;5026145;28;20688;-79
2024/02/28 10:48:27;;;;;;;36.35;12.85;;;5.30;100.00;;;;;;5010178;28;20734;-79
2024/02/28 10:50:55;;;;;;;35.13;13.45;;;5.20;100.00;;;;;;5009938;28;20041;-79
2024/02/28 10:53:37;;;;;;;48.85;15.27;;;5.20;100.00;;;;;;5010673;28;20038;-79
2024/02/28 10:56:06;;;;;;;37.33;13.93;;;5.30;100.00;;;;;;5010857;28;20050;-79
2024/02/28 10:58:37;;;;;;;39.28;14.35;;;5.40;100.00;;;;;;5010483;28;20046;-79
2024/02/28 11:01:05;;;;;;;40.08;14.63;;;5.40;100.00;;;;;;5008756;28;20530;-79
2024/02/28 11:03:33;;;;;;;43.90;15.25;;;5.50;100.00;;;;;;5009943;28;20104;-79
2024/02/28 11:06:00;;;;;;;46.85;14.75;;;5.60;100.00;;;;;;5025336;28;20058;-79
2024/02/28 11:08:28;;;;;;;43.58;15.50;;;5.80;100.00;;;;;;5023019;28;20107;-79
2024/02/28 11:10:56;;;;;;;47.88;15.57;;;5.80;100.00;;;;;;5010461;28;20124;-78
2024/02/28 11:13:26;;;;;;;41.58;15.48;;;5.80;100.00;;;;;;5011696;28;20042;-80
2024/02/28 11:15:55;;;;;;;42.78;16.90;;;6.10;100.00;;;;;;5010781;28;20081;-80
2024/02/28 11:18:22;;;;;;;41.50;15.40;;;6.40;100.00;;;;;;5010801;28;20046;-80
2024/02/28 11:20:50;;;;;;;38.22;14.50;;;7.10;100.00;;;;;;5014224;28;20487;-80
2024/02/28 11:23:17;;;;;;;38.72;14.60;;;7.10;100.00;;;;;;5009787;28;20053;-80
2024/02/28 11:25:44;;;;;;;45.40;15.82;;;7.00;100.00;;;;;;5011022;28;20057;-80
2024/02/28 11:28:11;;;;;;;41.25;15.77;;;6.90;100.00;;;;;;5010078;28;20050;-80
2024/02/28 11:30:38;;;;;;;41.67;15.95;;;6.90;100.00;;;;;;5009862;28;20391;-80
2024/02/28 11:33:05;;;;;;;38.00;15.13;;;7.10;100.00;;;;;;5024493;28;20124;-80
2024/02/28 11:35:32;;;;;;;42.88;15.55;;;7.30;100.00;;;;;;5009467;28;20096;-79
2024/02/28 11:37:59;;;;;;;45.38;15.38;;;7.40;100.00;;;;;;5009672;28;20504;-79
2024/02/28 11:40:27;;;;;;;36.13;14.93;;;7.40;100.00;;;;;;5021915;28;20136;-79
2024/02/28 11:42:54;;;;;;;39.47;16.88;;;7.50;100.00;;;;;;5006613;28;20407;-79
2024/02/28 11:45:21;;;;;;;47.08;15.73;;;7.30;100.00;;;;;;5010478;28;20096;-80
2024/02/28 11:47:49;;;;;;;44.83;16.00;;;7.10;100.00;;;;;;5025333;28;20045;-80
2024/02/28 11:50:18;;;;;;;34.85;15.20;;;7.10;100.00;;;;;;5008775;28;20418;-79
2024/02/28 11:52:45;;;;;;;37.10;15.02;;;7.10;100.00;;;;;;5021254;28;20054;-79
2024/02/28 11:55:12;;;;;;;40.92;14.98;;;7.00;100.00;;;;;;5007914;28;20129;-80
2024/02/28 11:57:40;;;;;;;36.38;14.30;;;7.20;100.00;;;;;;5008802;28;20069;-79
2024/02/28 12:00:09;;;;;;;41.65;15.13;;;7.30;100.00;;;;;;5022924;28;20086;-79
2024/02/28 12:02:35;;;;;;;37.40;14.40;;;7.40;100.00;;;;;;5011367;28;20794;-79
2024/02/28 12:05:04;;;;;;;36.85;13.95;;;7.50;100.00;;;;;;5010675;28;20256;-80
2024/02/28 12:07:32;;;;;;;34.83;15.02;;;7.50;100.00;;;;;;5009214;28;20063;-79
2024/02/28 12:09:59;;;;;;;32.90;13.65;;;7.50;100.00;;;;;;5007618;28;20672;-80
2024/02/28 12:12:30;;;;;;;35.72;13.93;;;7.80;100.00;;;;;;5009312;28;20119;-80
2024/02/28 12:15:00;;;;;;;35.47;15.73;;;8.00;100.00;;;;;;5008794;28;20154;-80
2024/02/28 12:17:28;;;;;;;34.78;14.57;;;8.30;100.00;;;;;;5015169;28;20053;-80
2024/02/28 12:19:55;;;;;;;37.70;13.65;;;8.90;100.00;;;;;;5006579;28;20151;-80
2024/02/28 12:22:22;;;;;;;31.45;13.50;;;8.90;100.00;;;;;;5007118;28;20042;-80
2024/02/28 12:24:49;;;;;;;31.48;13.43;;;9.60;100.00;;;;;;5022926;28;20054;-80
2024/02/28 12:27:17;;;;;;;31.30;13.80;;;11.00;100.00;;;;;;5010754;28;20085;-79
2024/02/28 12:29:43;;;;;;;30.02;13.98;;;11.70;100.00;;;;;;5016325;28;20053;-80
2024/02/28 12:32:10;;;;;;;28.05;13.05;;;11.40;100.00;;;;;;5006725;28;20104;-80
2024/02/28 12:34:37;;;;;;;25.98;12.88;;;11.80;100.00;;;;;;5004378;28;20081;-80
2024/02/28 12:37:05;;;;;;;30.63;13.60;;;12.20;100.00;;;;;;5016282;28;20456;-80
2024/02/28 12:39:34;;;;;;;40.38;14.18;;;12.80;100.00;;;;;;5011195;28;20132;-80
2024/02/28 12:42:01;;;;;;;26.02;12.90;;;14.00;100.00;;;;;;5008811;28;20053;-80
2024/02/28 12:44:28;;;;;;;29.80;13.90;;;14.20;100.00;;;;;;5008905;28;20062;-80